METAR AND TAF INFORMATION
METAR FOR MTPP
ADDS - METARS form results

(2006 UTC 23 February 2019)
Data provider http://aviationweather.gov/metar/data/
 
METAR text: MTPP 232000Z 24007KT 9999 FEW028 32/21 Q1014 A2996
Conditions at: MTPP (PORT-AU-PRINCE , HT) observed 2000 UTC 23 February 2019
Temperature: 32.0°C (90°F)
Dewpoint: 21.0°C (70°F) [RH = 52%]
Pressure (altimeter): 29.94 inches Hg (1014.0 mb)
Winds: from the WSW (240 degrees) at 8 MPH (7 knots; 3.6 m/s)
Visibility: 6 or more miles (10+ km)
Ceiling: at least 12,000 feet AGL
Clouds: few clouds at 2800 feet AGL
Weather: no significant weather observed at this time

 AIRPORT MAP

 RUNWAY INFORMATION
Runway 10 Runway length 9974 ft Runway width 141 ft
Runway elevation 79 ft Runway displaced threshold 0 ft Runway heading 87
Runway 28 Runway length 9974 ft Runway width 141 ft
Runway elevation 122 ft Runway displaced threshold 0 ft Runway heading 267

 AIRPORT FREQUENCIES
Type APP Name APP Frequency 119.8 MHZ
Type TWR Name TWR Frequency 118.3 MHZ

 AIRPORT NEAR NAVIGATION AIDS
Type NDB Name Port Au Prince Frequency 270 KHZ
Type VOR-DME Name Port Au Prince Frequency 115300 KHZ